Terminal Aerodrome Forecast
Issued by NWS

Home | Current Version | Previous Version | Text Only | Print | Product List | Glossary On
Versions: 1 2 3 4 5 6 7 8 9 10 11 12 13 14 15 16 17 18 19 20 21 22 23 24
000
FTUS44 KLZK 181900 AAB
TAFLIT
TAF AMD
KLIT 181959Z 1820/1918 01005KT P6SM OVC018
     FM182100 VRB05KT P6SM SCT025 BKN120
      TEMPO 1821/1823 BKN025
     FM190000 VRB03KT P6SM SCT120 BKN250
     FM190900 03003KT 3SM BR SCT015 BKN120
     FM191200 05003KT 1SM BR BKN010
     FM191600 08004KT 6SM BR OVC015=

USA.gov is the U.S. government's official web portal to all federal, state and local government web resources and services.